Iatan, Texas
Current Conditions -  °F | °C
As of 1:15 PM on Friday 28 Nov 2014 (Local Time) from KBPG Reporting Station
Clear Clear  
Wind Chill: 74°   Ceiling: Unl
Heat Index: 74°   Visibility: 10mi
Dew Point: 32°   Wind: 16mph
Humidity: 22%   Direction: 190°S
Pressure: 30.1"   Gusts: NA
Location:  32.2845°N, 101.031°W
Report Text: KBPG 281915Z AUTO 19014KT 10SM CLR 23/00 A3010 RMK AO2 T02330002
Loading
Personal Weather Stations






























Interactive Weather Map New forecast layout! Learn more

10-Day Weather Forecast

Advertisements
Track Severe Weather on mobile